Time;durP1;ratioP1;P1;durP2;ratioP2;P2;SDS_P1;SDS_P2;PMS_P1;PMS_P2;Temp;Humidity;BMP_temperature;BMP_pressure;BME280_temperature;BME280_humidity;BME280_pressure;Samples;Min_cycle;Max_cycle;Signal;HPM_P1;HPM_P2
2020/12/23 00:09:30;;;;;;;6.83;2.12;;;;;;;7.16;100.00;99909.75;9892989;88;21023;-86
2020/12/23 00:24:34;;;;;;;13.85;5.42;;;;;;;7.10;100.00;99918.54;9909099;85;21590;-86
2020/12/23 00:39:39;;;;;;;2.92;2.08;;;;;;;6.97;100.00;99922.62;10013355;87;21134;-84
2020/12/23 00:54:43;;;;;;;4.83;2.10;;;;;;;6.83;100.00;99951.88;10009304;87;21054;-85
2020/12/23 01:09:48;;;;;;;6.05;2.77;;;;;;;6.54;100.00;99974.16;10013294;87;21095;-86
2020/12/23 01:24:52;;;;;;;5.72;1.98;;;;;;;6.38;100.00;99970.11;10007625;87;21154;-86
2020/12/23 01:39:56;;;;;;;5.05;1.77;;;;;;;6.20;100.00;99976.70;9860830;88;21070;-86
2020/12/23 01:55:02;;;;;;;7.05;3.02;;;;;;;6.11;100.00;100008.16;9913092;88;21486;-90
2020/12/23 02:10:08;;;;;;;5.30;1.75;;;;;;;6.09;100.00;100028.29;9955374;88;21076;-85
2020/12/23 02:25:13;;;;;;;31.65;9.30;;;;;;;5.90;100.00;100035.27;9804599;86;21237;-85
2020/12/23 02:40:17;;;;;;;6.58;2.35;;;;;;;5.80;100.00;100047.64;10013731;87;21071;-84
2020/12/23 02:55:22;;;;;;;7.20;2.15;;;;;;;5.76;100.00;100072.23;10012786;87;21090;-85
2020/12/23 03:10:27;;;;;;;11.85;2.90;;;;;;;5.72;100.00;100077.30;9991752;87;21078;-89
2020/12/23 03:25:31;;;;;;;5.80;2.25;;;;;;;5.68;100.00;100072.44;10001767;88;21556;-90
2020/12/23 03:40:35;;;;;;;9.93;2.65;;;;;;;5.59;100.00;100071.31;9937143;88;21076;-89
2020/12/23 03:55:40;;;;;;;9.50;2.50;;;;;;;5.61;100.00;100098.07;9932021;88;21192;-85
2020/12/23 04:10:44;;;;;;;6.47;2.20;;;;;;;5.49;100.00;100095.86;9953510;87;21063;-87
2020/12/23 04:25:48;;;;;;;7.92;3.12;;;;;;;5.39;100.00;100108.66;9963417;87;21110;-85
2020/12/23 04:40:52;;;;;;;1098.50;612.88;;;;;;;5.25;100.00;100121.33;10015642;87;21149;-85
2020/12/23 04:55:57;;;;;;;22.77;6.33;;;;;;;5.20;100.00;100148.11;10016046;87;21491;-86
2020/12/23 05:11:07;;;;;;;30.55;10.63;;;;;;;5.11;100.00;100167.77;10015940;87;21105;-85
2020/12/23 05:26:13;;;;;;;10.32;4.12;;;;;;;4.97;100.00;100175.16;10016026;86;21085;-88
2020/12/23 05:41:17;;;;;;;177.07;68.50;;;;;;;4.94;100.00;100184.48;9978309;87;21094;-87
2020/12/23 05:56:21;;;;;;;45.40;21.85;;;;;;;4.93;100.00;100187.19;10013160;87;21128;-87
2020/12/23 06:11:31;;;;;;;13.78;6.92;;;;;;;4.93;100.00;100204.91;10003910;87;21109;-86
2020/12/23 06:27:16;;;;;;;25.90;10.68;;;;;;;4.82;100.00;100222.51;9938803;87;21177;-89
2020/12/23 06:42:50;;;;;;;20.10;10.65;;;;;;;4.59;100.00;100238.75;9824134;88;21152;-85
2020/12/23 06:57:59;;;;;;;35.58;16.32;;;;;;;4.35;100.00;100249.76;9370987;93;21595;-84
2020/12/23 07:13:06;;;;;;;61.43;27.53;;;;;;;4.22;100.00;100261.84;9730675;88;21099;-85
2020/12/23 07:28:12;;;;;;;63.13;28.45;;;;;;;4.16;100.00;100285.13;9875827;87;21505;-83
2020/12/23 07:43:19;;;;;;;112.10;47.23;;;;;;;4.08;100.00;100307.67;9919257;88;21538;-84
2020/12/23 07:58:24;;;;;;;83.77;36.77;;;;;;;3.92;100.00;100307.76;9951798;88;21131;-81
2020/12/23 08:13:30;;;;;;;108.80;36.50;;;;;;;3.85;100.00;100316.83;9796877;89;21492;-84
2020/12/23 08:28:37;;;;;;;82.15;29.67;;;;;;;3.81;100.00;100323.12;9772414;88;21227;-84
2020/12/23 08:43:47;;;;;;;107.50;54.63;;;;;;;4.35;100.00;100319.89;9936738;88;21030;-85
2020/12/23 08:58:58;;;;;;;53.75;24.35;;;;;;;4.99;100.00;100339.72;9922439;88;21051;-84
2020/12/23 09:14:41;;;;;;;74.62;31.12;;;;;;;5.26;100.00;100337.56;9915912;87;21067;-85
2020/12/23 09:29:53;;;;;;;57.60;23.00;;;;;;;5.69;100.00;100325.25;9944114;87;21169;-86
2020/12/23 09:44:58;;;;;;;170.97;67.80;;;;;;;6.61;100.00;100334.61;9996812;87;21077;-86
2020/12/23 10:00:08;;;;;;;94.30;36.48;;;;;;;6.61;100.00;100341.58;9991476;87;21161;-86
2020/12/23 10:15:15;;;;;;;41.68;19.27;;;;;;;7.16;100.00;100348.53;9975674;87;21522;-87
2020/12/23 10:30:20;;;;;;;31.05;14.30;;;;;;;7.41;100.00;100330.59;9914748;87;21520;-85
2020/12/23 10:45:24;;;;;;;28.40;9.33;;;;;;;8.41;100.00;100318.75;9891251;87;21275;-87
2020/12/23 11:00:29;;;;;;;74.07;28.12;;;;;;;8.22;100.00;100308.88;9914681;87;21069;-86
2020/12/23 11:15:33;;;;;;;24.27;9.30;;;;;;;8.31;100.00;100293.78;9930422;87;21561;-86
2020/12/23 11:30:38;;;;;;;26.17;10.10;;;;;;;8.28;100.00;100302.70;9948183;87;21156;-86
2020/12/23 11:45:42;;;;;;;34.60;17.15;;;;;;;8.89;100.00;100294.06;9899112;87;21193;-86
2020/12/23 12:00:48;;;;;;;158.95;80.38;;;;;;;9.32;100.00;100308.39;10074942;86;21109;-88
2020/12/23 12:15:53;;;;;;;29.10;14.63;;;;;;;9.47;100.00;100319.86;10063208;86;21077;-88
2020/12/23 12:30:57;;;;;;;24.85;9.93;;;;;;;9.21;100.00;100312.39;10052149;86;21074;-88
2020/12/23 12:46:02;;;;;;;50.63;25.62;;;;;;;8.80;100.00;100317.40;9938544;87;21097;-86
2020/12/23 13:01:07;;;;;;;55.33;28.65;;;;;;;9.71;100.00;100326.14;10126124;86;21038;-87
2020/12/23 13:16:13;;;;;;;21.50;9.45;;;;;;;11.10;100.00;100327.33;10089023;86;21559;-86
2020/12/23 13:31:26;;;;;;;18.07;7.42;;;;;;;10.50;100.00;100312.94;10064046;86;21175;-85
2020/12/23 13:46:31;;;;;;;109.20;58.05;;;;;;;10.40;100.00;100324.72;10039570;87;21330;-86
2020/12/23 14:01:37;;;;;;;25.62;11.95;;;;;;;8.49;100.00;100312.46;10008876;86;21588;-88
2020/12/23 14:16:43;;;;;;;67.50;27.82;;;;;;;6.95;100.00;100310.01;9981262;87;21058;-86
2020/12/23 14:31:47;;;;;;;54.93;21.00;;;;;;;6.28;100.00;100297.40;10010518;86;21528;-86
2020/12/23 14:46:54;;;;;;;48.00;25.57;;;;;;;5.65;100.00;100299.44;10049471;86;21161;-85
2020/12/23 15:01:59;;;;;;;388.13;115.47;;;;;;;5.14;100.00;100304.55;10014433;86;21125;-86
2020/12/23 15:17:05;;;;;;;261.92;104.75;;;;;;;4.61;100.00;100310.95;10027265;86;21149;-87
2020/12/23 15:32:12;;;;;;;174.40;64.60;;;;;;;4.38;100.00;100299.38;10034464;86;21074;-87
2020/12/23 15:47:17;;;;;;;151.37;52.00;;;;;;;4.16;100.00;100295.52;10028480;86;21502;-87
2020/12/23 16:02:21;;;;;;;398.90;143.20;;;;;;;3.86;100.00;100289.95;10003646;86;21216;-85
2020/12/23 16:17:27;;;;;;;388.90;126.87;;;;;;;3.59;100.00;100281.59;10051935;86;21043;-86
2020/12/23 16:32:38;;;;;;;597.33;205.83;;;;;;;3.58;100.00;100266.12;10000912;86;21190;-86
2020/12/23 16:47:45;;;;;;;123.67;52.70;;;;;;;3.26;100.00;100261.03;9995139;87;21059;-86
2020/12/23 17:02:50;;;;;;;185.60;70.78;;;;;;;3.09;100.00;100251.19;9989155;87;21028;-86
2020/12/23 17:17:58;;;;;;;110.10;42.73;;;;;;;2.77;100.00;100229.68;10006418;87;21147;-84
2020/12/23 17:33:03;;;;;;;100.75;40.73;;;;;;;2.69;100.00;100222.34;10038271;86;21241;-86
2020/12/23 17:48:07;;;;;;;139.65;53.33;;;;;;;2.89;100.00;100204.39;10011692;87;21193;-86
2020/12/23 18:03:12;;;;;;;158.47;66.12;;;;;;;2.92;100.00;100235.77;10018397;87;21118;-86
2020/12/23 18:18:17;;;;;;;87.65;40.38;;;;;;;2.88;100.00;100223.89;10005483;87;21154;-86
2020/12/23 18:33:23;;;;;;;172.50;74.72;;;;;;;2.97;100.00;100221.62;9574046;91;21124;-85
2020/12/23 18:48:28;;;;;;;115.17;41.20;;;;;;;2.93;100.00;100201.14;9934526;86;21592;-88
2020/12/23 19:03:32;;;;;;;84.10;39.60;;;;;;;2.89;100.00;100184.10;10105497;86;21486;-87
2020/12/23 19:18:38;;;;;;;88.33;35.05;;;;;;;2.83;100.00;100161.50;10100690;86;21113;-86
2020/12/23 19:33:42;;;;;;;80.28;32.30;;;;;;;2.91;100.00;100141.63;10114358;86;21118;-87
2020/12/23 19:48:48;;;;;;;395.88;111.15;;;;;;;2.77;100.00;100094.52;10172810;86;21483;-91
2020/12/23 20:03:53;;;;;;;322.63;103.62;;;;;;;2.56;100.00;100063.38;10174427;86;21089;-92
2020/12/23 20:18:57;;;;;;;161.80;61.02;;;;;;;2.30;100.00;100041.95;10170364;86;21078;-87
2020/12/23 20:34:03;;;;;;;144.43;50.50;;;;;;;2.21;100.00;100010.13;10141638;86;21102;-89
2020/12/23 20:49:12;;;;;;;105.63;36.93;;;;;;;2.13;100.00;99994.21;10400163;80;21163;-92
2020/12/23 21:04:19;;;;;;;89.92;31.62;;;;;;;2.12;100.00;99990.77;10748805;82;21107;-86
2020/12/23 21:19:32;;;;;;;76.40;28.23;;;;;;;2.12;100.00;99970.06;10740951;82;21107;-85
2020/12/23 21:34:36;;;;;;;77.85;31.60;;;;;;;2.17;100.00;99942.64;10688375;82;21450;-85
2020/12/23 21:49:41;;;;;;;81.10;30.82;;;;;;;2.35;100.00;99903.20;10663923;82;21099;-85
2020/12/23 22:04:46;;;;;;;94.97;39.78;;;;;;;2.45;100.00;99874.50;10620993;82;20993;-84
2020/12/23 22:19:51;;;;;;;93.55;36.00;;;;;;;2.63;100.00;99839.36;10618679;82;21079;-85
2020/12/23 22:34:55;;;;;;;88.40;35.15;;;;;;;2.77;100.00;99834.16;10592820;83;21024;-85
2020/12/23 22:50:00;;;;;;;69.82;29.32;;;;;;;2.91;100.00;99808.65;10594783;82;21107;-84
2020/12/23 23:05:05;;;;;;;62.15;27.80;;;;;;;2.98;100.00;99800.02;10599463;83;21032;-86
2020/12/23 23:20:11;;;;;;;58.87;28.75;;;;;;;3.14;100.00;99763.13;10574963;82;21060;-84
2020/12/23 23:35:18;;;;;;;57.10;23.93;;;;;;;3.22;100.00;99737.14;10535911;83;21237;-91
2020/12/23 23:50:23;;;;;;;164.13;51.20;;;;;;;3.26;100.00;99691.94;10563029;82;21059;-92
